Time;durP1;ratioP1;P1;durP2;ratioP2;P2;SDS_P1;SDS_P2;PMS_P1;PMS_P2;Temp;Humidity;BMP_temperature;BMP_pressure;BME280_temperature;BME280_humidity;BME280_pressure;Samples;Min_cycle;Max_cycle;Signal;HPM_P1;HPM_P2
2023/09/01 00:00:35;;;;;;;13.05;4.70;;;;;;;15.44;100.00;101066.81;5097287;28;20513;-62
2023/09/01 00:03:40;;;;;;;11.15;4.32;;;;;;;15.44;100.00;101063.22;5111162;28;20054;-65
2023/09/01 00:06:28;;;;;;;11.05;4.10;;;;;;;15.44;100.00;101061.31;5132601;28;20143;-64
2023/09/01 00:09:16;;;;;;;11.68;4.18;;;;;;;15.47;100.00;101059.91;5117052;27;20070;-63
2023/09/01 00:12:04;;;;;;;11.57;4.25;;;;;;;15.47;100.00;101044.22;5136217;27;20043;-64
2023/09/01 00:14:53;;;;;;;13.77;4.28;;;;;;;15.48;100.00;101039.56;5121103;27;20700;-65
2023/09/01 00:17:41;;;;;;;9.90;4.03;;;;;;;15.47;100.00;101032.44;5122541;27;20043;-63
2023/09/01 00:20:29;;;;;;;10.98;4.47;;;;;;;15.47;100.00;101048.91;5122185;27;20039;-63
2023/09/01 00:23:17;;;;;;;9.32;4.00;;;;;;;15.48;100.00;101042.31;5135493;27;20118;-64
2023/09/01 00:26:05;;;;;;;9.45;4.18;;;;;;;15.51;100.00;101044.44;5133702;27;20125;-64
2023/09/01 00:28:53;;;;;;;12.38;3.97;;;;;;;15.50;100.00;101045.56;5092795;27;20096;-64
2023/09/01 00:31:41;;;;;;;14.02;4.72;;;;;;;15.48;100.00;101042.31;5120590;27;20043;-63
2023/09/01 00:34:31;;;;;;;10.65;4.40;;;;;;;15.46;100.00;101031.59;5122059;27;20167;-63
2023/09/01 00:37:19;;;;;;;10.25;4.28;;;;;;;15.46;100.00;101030.78;5135067;27;20078;-65
2023/09/01 00:40:07;;;;;;;12.35;4.80;;;;;;;15.44;100.00;101033.00;5120447;27;20468;-64
2023/09/01 00:42:55;;;;;;;9.18;3.97;;;;;;;15.43;100.00;101039.63;5121241;27;20456;-64
2023/09/01 00:45:44;;;;;;;11.70;4.53;;;;;;;15.44;100.00;101031.09;5119871;27;20042;-65
2023/09/01 00:48:32;;;;;;;11.18;4.35;;;;;;;15.43;100.00;101025.91;5119589;27;20422;-63
2023/09/01 00:51:21;;;;;;;12.80;5.03;;;;;;;15.42;100.00;101035.25;5136531;27;20085;-64
2023/09/01 00:54:09;;;;;;;10.38;4.28;;;;;;;15.40;100.00;101026.50;5106351;27;20089;-64
2023/09/01 00:56:57;;;;;;;10.15;4.20;;;;;;;15.37;100.00;101027.06;5118620;27;20048;-64
2023/09/01 00:59:45;;;;;;;9.77;4.00;;;;;;;15.35;100.00;101019.16;5121230;27;20096;-64
2023/09/01 01:02:33;;;;;;;10.85;4.30;;;;;;;15.31;100.00;101016.16;5120497;27;20406;-64
2023/09/01 01:05:29;;;;;;;9.85;4.30;;;;;;;15.33;100.00;101016.69;5103164;27;20050;-64
2023/09/01 01:08:47;;;;;;;14.25;4.85;;;;;;;15.37;100.00;101021.56;5120387;27;20092;-65
2023/09/01 01:11:54;;;;;;;11.00;4.18;;;;;;;15.40;100.00;101026.50;5106683;27;20451;-63
2023/09/01 01:14:47;;;;;;;8.98;4.10;;;;;;;15.40;100.00;101032.00;5100559;28;20062;-64
2023/09/01 01:17:44;;;;;;;10.55;4.25;;;;;;;15.38;100.00;101039.69;5086285;28;20134;-64
2023/09/01 01:20:34;;;;;;;11.00;4.47;;;;;;;15.38;100.00;101034.22;5085257;28;20130;-63
2023/09/01 01:23:23;;;;;;;10.63;4.93;;;;;;;15.38;100.00;101036.94;5104110;27;20054;-64
2023/09/01 01:26:15;;;;;;;12.02;4.60;;;;;;;15.35;100.00;101032.88;5119358;27;20487;-65
2023/09/01 01:29:03;;;;;;;12.55;4.82;;;;;;;15.34;100.00;101034.81;5099991;28;20134;-64
2023/09/01 01:31:52;;;;;;;14.65;4.90;;;;;;;15.33;100.00;101033.16;5099993;28;20096;-63
2023/09/01 01:34:50;;;;;;;13.00;4.90;;;;;;;15.34;100.00;101032.06;5113069;27;20418;-63
2023/09/01 01:37:59;;;;;;;11.90;4.82;;;;;;;15.35;100.00;101038.38;5129270;27;20045;-57
2023/09/01 01:40:50;;;;;;;12.68;4.63;;;;;;;15.34;100.00;101039.47;5113345;27;20052;-59
2023/09/01 01:43:40;;;;;;;18.40;4.93;;;;;;;15.34;100.00;101034.81;5126467;27;20148;-65
2023/09/01 01:46:28;;;;;;;14.32;5.00;;;;;;;15.33;100.00;101037.84;5135540;27;20096;-64
2023/09/01 01:49:16;;;;;;;13.32;5.07;;;;;;;15.34;100.00;101040.28;5135165;27;20072;-58
2023/09/01 01:52:05;;;;;;;12.48;4.93;;;;;;;15.33;100.00;101030.41;5135284;27;20459;-59
2023/09/01 01:54:53;;;;;;;10.98;4.30;;;;;;;15.36;100.00;101041.91;5121751;27;20074;-64
2023/09/01 01:57:41;;;;;;;13.32;5.00;;;;;;;15.34;100.00;101042.19;5119400;27;20148;-63
2023/09/01 02:00:30;;;;;;;17.08;5.18;;;;;;;15.33;100.00;101044.13;5119856;27;20045;-63
2023/09/01 02:03:19;;;;;;;8.27;4.15;;;;;;;15.31;100.00;101040.06;5119137;27;20396;-63
2023/09/01 02:06:07;;;;;;;11.63;4.30;;;;;;;15.32;100.00;101036.19;5105388;27;20126;-63
2023/09/01 02:08:55;;;;;;;11.45;4.80;;;;;;;15.31;100.00;101042.81;5117349;27;20047;-64
2023/09/01 02:11:44;;;;;;;14.80;4.57;;;;;;;15.29;100.00;101037.59;5118662;27;20047;-64
2023/09/01 02:14:34;;;;;;;10.68;4.20;;;;;;;15.27;100.00;101037.09;5119429;27;20139;-64
2023/09/01 02:17:23;;;;;;;10.05;4.10;;;;;;;15.27;100.00;101031.59;5106274;27;20130;-63
2023/09/01 02:20:16;;;;;;;10.48;5.10;;;;;;;15.27;100.00;101028.84;5119487;27;20058;-63
2023/09/01 02:23:04;;;;;;;13.57;4.55;;;;;;;15.28;100.00;101033.22;5125847;27;20044;-63
2023/09/01 02:25:52;;;;;;;10.73;4.82;;;;;;;15.27;100.00;101031.59;5098935;28;20088;-64
2023/09/01 02:28:43;;;;;;;13.85;5.07;;;;;;;15.22;100.00;101028.09;5122607;27;20502;-64
2023/09/01 02:31:31;;;;;;;8.65;4.35;;;;;;;15.18;100.00;101025.13;5134398;27;20050;-65
2023/09/01 02:34:19;;;;;;;11.27;4.80;;;;;;;15.17;100.00;101023.47;5133597;27;20043;-64
2023/09/01 02:37:07;;;;;;;12.40;4.82;;;;;;;15.17;100.00;101018.00;5113595;27;20043;-64
2023/09/01 02:39:55;;;;;;;10.25;4.55;;;;;;;15.19;100.00;101032.25;5116657;27;20039;-66
2023/09/01 02:42:43;;;;;;;14.25;5.38;;;;;;;15.15;100.00;101031.19;5133887;27;20171;-63
2023/09/01 02:45:31;;;;;;;12.85;4.47;;;;;;;15.09;100.00;101032.38;5132432;27;20043;-63
2023/09/01 02:48:19;;;;;;;13.57;5.18;;;;;;;15.07;100.00;101029.91;5119201;27;20043;-63
2023/09/01 02:51:07;;;;;;;13.48;4.93;;;;;;;15.05;100.00;101036.81;5097976;28;20039;-65
2023/09/01 02:53:55;;;;;;;13.45;4.82;;;;;;;15.00;100.00;101029.44;5127011;27;20046;-64
2023/09/01 02:56:43;;;;;;;10.65;4.35;;;;;;;15.00;100.00;101020.41;5097619;28;20101;-64
2023/09/01 02:59:32;;;;;;;12.65;5.15;;;;;;;15.02;100.00;101029.16;5101896;27;20047;-65
2023/09/01 03:02:21;;;;;;;10.00;4.40;;;;;;;15.01;100.00;101020.13;5118746;28;20126;-63
2023/09/01 03:05:10;;;;;;;12.85;4.70;;;;;;;15.07;100.00;101018.13;5134814;28;20183;-64
2023/09/01 03:07:58;;;;;;;11.07;4.78;;;;;;;15.07;100.00;101020.88;5133481;28;20398;-65
2023/09/01 03:10:46;;;;;;;10.43;4.97;;;;;;;15.03;100.00;101023.41;5117979;28;20053;-63
2023/09/01 03:13:34;;;;;;;15.18;4.80;;;;;;;15.01;100.00;101013.78;5118435;28;20135;-62
2023/09/01 03:16:23;;;;;;;9.45;4.60;;;;;;;14.99;100.00;101021.53;5117413;28;20521;-64
2023/09/01 03:19:12;;;;;;;16.98;5.20;;;;;;;14.94;100.00;101008.69;5118521;28;20044;-65
2023/09/01 03:22:00;;;;;;;10.20;4.65;;;;;;;14.90;100.00;101002.94;5103516;28;20513;-63
2023/09/01 03:24:49;;;;;;;10.90;4.70;;;;;;;14.92;100.00;100999.94;5118840;28;20057;-64
2023/09/01 03:27:38;;;;;;;14.35;5.00;;;;;;;14.95;100.00;100996.59;5132558;28;20050;-64
2023/09/01 03:30:28;;;;;;;9.88;4.82;;;;;;;14.95;100.00;101002.06;5118287;28;20059;-64
2023/09/01 03:33:16;;;;;;;10.10;4.60;;;;;;;14.99;100.00;101007.81;5097542;28;20043;-63
2023/09/01 03:36:07;;;;;;;11.10;4.70;;;;;;;15.03;100.00;101015.16;5102572;28;20051;-64
2023/09/01 03:38:56;;;;;;;12.50;4.97;;;;;;;15.05;100.00;101003.88;5116814;28;20046;-65
2023/09/01 03:41:44;;;;;;;13.85;4.75;;;;;;;15.02;100.00;101008.03;5116381;28;20047;-65
2023/09/01 03:44:32;;;;;;;12.10;5.07;;;;;;;14.98;100.00;100997.94;5131910;27;20039;-63
2023/09/01 03:47:21;;;;;;;12.18;5.50;;;;;;;14.96;100.00;100998.25;5132010;27;20416;-63
2023/09/01 03:50:09;;;;;;;10.57;4.68;;;;;;;14.94;100.00;101002.38;5137366;27;20043;-64
2023/09/01 03:52:57;;;;;;;11.07;4.75;;;;;;;14.90;100.00;100997.47;5111690;27;20054;-63
2023/09/01 03:55:45;;;;;;;8.98;4.80;;;;;;;14.89;100.00;100989.53;5121705;27;20180;-64
2023/09/01 03:58:33;;;;;;;11.32;4.30;;;;;;;14.85;100.00;100992.03;5120678;27;20184;-65
2023/09/01 04:01:21;;;;;;;10.70;5.07;;;;;;;14.84;100.00;100993.16;5136107;27;20115;-65
2023/09/01 04:04:09;;;;;;;11.68;4.75;;;;;;;14.86;100.00;100995.59;5131890;27;20501;-64
2023/09/01 04:06:57;;;;;;;13.40;5.05;;;;;;;14.87;100.00;101000.00;5101158;28;20126;-65
2023/09/01 04:09:46;;;;;;;14.18;5.07;;;;;;;14.87;100.00;101000.00;5122793;27;20084;-64
2023/09/01 04:12:34;;;;;;;12.52;5.18;;;;;;;14.83;100.00;100991.50;5118184;27;20118;-63
2023/09/01 04:15:22;;;;;;;12.23;5.10;;;;;;;14.81;100.00;100984.69;5119845;27;20051;-64
2023/09/01 04:18:10;;;;;;;9.07;4.63;;;;;;;14.79;100.00;100975.94;5106393;27;20043;-64
2023/09/01 04:20:59;;;;;;;14.60;5.10;;;;;;;14.77;100.00;100987.22;5101848;27;20058;-64
2023/09/01 04:23:48;;;;;;;11.52;5.28;;;;;;;14.77;100.00;100975.41;5118524;27;20114;-63
2023/09/01 04:26:37;;;;;;;15.43;5.30;;;;;;;14.76;100.00;100979.25;5119972;27;20058;-64
2023/09/01 04:29:26;;;;;;;11.07;5.07;;;;;;;14.75;100.00;100978.44;5107336;27;20172;-64
2023/09/01 04:32:14;;;;;;;12.30;4.68;;;;;;;14.75;100.00;100988.63;5113071;28;20105;-64
2023/09/01 04:35:04;;;;;;;11.68;4.97;;;;;;;14.79;100.00;100979.50;5110751;27;20047;-64
2023/09/01 04:37:53;;;;;;;9.82;4.82;;;;;;;14.82;100.00;100978.09;5119512;27;20055;-64
2023/09/01 04:40:41;;;;;;;9.73;4.95;;;;;;;14.83;100.00;100980.53;5121095;27;20048;-63
2023/09/01 04:43:29;;;;;;;14.00;5.30;;;;;;;14.80;100.00;100985.81;5105811;27;20073;-64
2023/09/01 04:46:18;;;;;;;11.13;4.85;;;;;;;14.80;100.00;100989.38;5106305;27;20046;-63
2023/09/01 04:49:06;;;;;;;11.88;5.10;;;;;;;14.80;100.00;100986.63;5135659;27;20498;-64
2023/09/01 04:51:54;;;;;;;13.60;5.65;;;;;;;14.79;100.00;100985.00;5105793;27;20051;-64
2023/09/01 04:54:42;;;;;;;11.00;5.07;;;;;;;14.81;100.00;100996.47;5100207;28;20047;-66
2023/09/01 04:57:31;;;;;;;11.27;5.10;;;;;;;14.82;100.00;101000.88;5099245;28;20047;-64
2023/09/01 05:00:21;;;;;;;15.13;5.43;;;;;;;14.87;100.00;100997.25;5092738;27;20486;-64
2023/09/01 05:03:09;;;;;;;12.43;5.35;;;;;;;14.89;100.00;101001.34;5104494;28;20077;-63
2023/09/01 05:05:57;;;;;;;11.73;5.47;;;;;;;14.90;100.00;100994.72;5112786;27;20110;-64
2023/09/01 05:08:45;;;;;;;13.38;5.40;;;;;;;14.91;100.00;100993.63;5105493;27;20099;-63
2023/09/01 05:11:33;;;;;;;11.20;5.28;;;;;;;14.95;100.00;100987.53;5137006;27;20047;-62
2023/09/01 05:14:21;;;;;;;14.20;5.97;;;;;;;14.95;100.00;100993.03;5135483;27;20444;-64
2023/09/01 05:17:09;;;;;;;16.65;5.50;;;;;;;14.93;100.00;100984.28;5092729;27;20043;-63
2023/09/01 05:19:58;;;;;;;16.35;5.65;;;;;;;14.87;100.00;100983.53;5119512;27;20079;-62
2023/09/01 05:22:46;;;;;;;12.88;5.30;;;;;;;14.81;100.00;100985.50;5131748;27;20043;-64
2023/09/01 05:25:34;;;;;;;11.98;4.90;;;;;;;14.79;100.00;100995.97;5119170;27;20411;-63
2023/09/01 05:28:22;;;;;;;12.25;5.00;;;;;;;14.81;100.00;100999.22;5119651;27;20093;-64
2023/09/01 05:31:11;;;;;;;13.65;5.40;;;;;;;14.85;100.00;100993.97;5117464;27;20047;-65
2023/09/01 05:34:03;;;;;;;11.60;5.38;;;;;;;14.88;100.00;100985.97;5119253;27;20051;-64
2023/09/01 05:36:52;;;;;;;15.65;5.68;;;;;;;14.90;100.00;100991.97;5119426;27;20051;-64
2023/09/01 05:39:40;;;;;;;12.88;5.60;;;;;;;14.91;100.00;100990.88;5105651;27;20039;-64
2023/09/01 05:42:29;;;;;;;11.88;5.30;;;;;;;14.95;100.00;100998.53;5131834;27;20039;-63
2023/09/01 05:45:17;;;;;;;12.60;5.18;;;;;;;14.99;100.00;100999.56;5119113;27;20039;-63
2023/09/01 05:48:06;;;;;;;12.18;5.03;;;;;;;15.04;100.00;101002.25;5119317;27;20164;-63
2023/09/01 05:50:55;;;;;;;11.45;5.00;;;;;;;15.08;100.00;101000.53;5119653;27;20067;-62
2023/09/01 05:53:43;;;;;;;11.60;5.35;;;;;;;15.11;100.00;100991.75;5117600;27;20133;-63
2023/09/01 05:56:32;;;;;;;13.98;5.47;;;;;;;15.13;100.00;101000.50;5134029;27;20047;-63
2023/09/01 05:59:20;;;;;;;10.98;5.13;;;;;;;15.14;100.00;100996.63;5106466;27;20047;-62
2023/09/01 06:02:10;;;;;;;12.02;5.00;;;;;;;15.18;100.00;100997.69;5120531;27;20054;-63
2023/09/01 06:04:58;;;;;;;11.00;5.00;;;;;;;15.21;100.00;100988.03;5132353;27;20080;-64
2023/09/01 06:07:46;;;;;;;12.30;4.70;;;;;;;15.22;100.00;100987.72;5136945;27;20043;-63
2023/09/01 06:10:34;;;;;;;11.43;4.70;;;;;;;15.24;100.00;100996.50;5136866;27;20047;-60
2023/09/01 06:13:22;;;;;;;10.05;4.38;;;;;;;15.26;100.00;100991.53;4410356;27;10000658;-63
2023/09/01 06:16:10;;;;;;;13.55;4.68;;;;;;;15.29;100.00;100992.84;5117484;27;20081;-62
2023/09/01 06:19:00;;;;;;;14.18;5.35;;;;;;;15.30;100.00;100995.31;5142263;27;20027;-61
2023/09/01 06:21:48;;;;;;;14.98;5.00;;;;;;;15.28;100.00;100996.72;5117410;28;20055;-60
2023/09/01 06:24:36;;;;;;;12.80;5.25;;;;;;;15.27;100.00;100997.81;5135905;27;20031;-66
2023/09/01 06:27:24;;;;;;;10.82;5.28;;;;;;;15.23;100.00;101005.03;5131952;27;20080;-64
2023/09/01 06:30:12;;;;;;;12.43;5.40;;;;;;;15.23;100.00;101005.84;5130229;27;20070;-63
2023/09/01 06:33:00;;;;;;;11.20;5.30;;;;;;;15.23;100.00;100997.63;5128771;27;20126;-64
2023/09/01 06:35:48;;;;;;;10.98;5.05;;;;;;;15.28;100.00;101003.03;5111605;28;20410;-64
2023/09/01 06:38:37;;;;;;;11.18;4.22;;;;;;;15.32;100.00;100995.84;5110997;28;20051;-64
2023/09/01 06:41:25;;;;;;;10.02;4.90;;;;;;;15.37;100.00;101000.44;5131525;27;20039;-63
2023/09/01 06:44:13;;;;;;;11.55;5.43;;;;;;;15.41;100.00;100989.69;5118269;27;20160;-64
2023/09/01 06:47:01;;;;;;;10.00;4.38;;;;;;;15.43;100.00;100999.25;5113312;28;20079;-65
2023/09/01 06:49:49;;;;;;;10.15;4.72;;;;;;;15.46;100.00;101006.06;5109786;27;20054;-63
2023/09/01 06:52:37;;;;;;;10.48;4.63;;;;;;;15.48;100.00;101012.09;5118753;27;20175;-64
2023/09/01 06:55:25;;;;;;;14.45;5.28;;;;;;;15.49;100.00;101008.22;5133737;27;20093;-64
2023/09/01 06:58:13;;;;;;;11.18;4.45;;;;;;;15.51;100.00;101006.00;5118759;27;20054;-63
2023/09/01 07:01:10;;;;;;;10.43;4.28;;;;;;;15.51;100.00;101017.81;5103996;27;20047;-63
2023/09/01 07:03:58;;;;;;;9.85;4.70;;;;;;;15.51;100.00;101016.97;5133946;27;20073;-62
2023/09/01 07:06:46;;;;;;;7.55;4.20;;;;;;;15.52;100.00;101018.63;5133445;28;20126;-63
2023/09/01 07:09:34;;;;;;;12.68;5.00;;;;;;;15.53;100.00;101014.75;5117638;28;20526;-63
2023/09/01 07:12:22;;;;;;;9.70;4.60;;;;;;;15.52;100.00;101004.91;5103894;28;20128;-63
2023/09/01 07:15:10;;;;;;;10.70;4.55;;;;;;;15.54;100.00;100998.00;5124547;28;20148;-65
2023/09/01 07:17:58;;;;;;;10.63;4.68;;;;;;;15.57;100.00;100993.84;5133543;28;20632;-63
2023/09/01 07:20:47;;;;;;;12.27;5.05;;;;;;;15.59;100.00;101001.78;5135299;27;20047;-64
2023/09/01 07:23:35;;;;;;;10.52;5.50;;;;;;;15.58;100.00;100998.22;5122939;27;20557;-62
2023/09/01 07:26:23;;;;;;;11.45;5.30;;;;;;;15.54;100.00;100994.44;5136132;27;20124;-64
2023/09/01 07:29:12;;;;;;;11.35;5.55;;;;;;;15.53;100.00;100996.34;5121603;27;20039;-64
2023/09/01 07:32:00;;;;;;;11.25;4.95;;;;;;;15.54;100.00;100999.94;5101801;28;20507;-64
2023/09/01 07:34:48;;;;;;;12.23;6.10;;;;;;;15.58;100.00;100989.97;5101178;28;20148;-63
2023/09/01 07:37:36;;;;;;;9.32;4.65;;;;;;;15.62;100.00;100996.50;5116809;28;20047;-64
2023/09/01 07:40:24;;;;;;;13.43;5.40;;;;;;;15.66;100.00;100997.56;5134652;27;20410;-63
2023/09/01 07:43:15;;;;;;;13.80;5.65;;;;;;;15.65;100.00;100995.09;5121377;27;20042;-64
2023/09/01 07:46:04;;;;;;;11.63;5.13;;;;;;;15.63;100.00;100987.13;5137182;27;20047;-63
2023/09/01 07:48:52;;;;;;;10.40;5.18;;;;;;;15.61;100.00;100983.91;5121020;27;20039;-63
2023/09/01 07:51:40;;;;;;;12.25;5.40;;;;;;;15.58;100.00;100973.50;5123181;27;20051;-63
2023/09/01 07:54:28;;;;;;;11.85;5.40;;;;;;;15.57;100.00;100980.09;5120698;27;20511;-64
2023/09/01 07:57:16;;;;;;;10.30;5.63;;;;;;;15.58;100.00;100987.22;5122246;27;20051;-64
2023/09/01 08:00:07;;;;;;;12.93;5.82;;;;;;;15.59;100.00;100986.13;5137211;27;20081;-65
2023/09/01 08:03:00;;;;;;;10.82;5.18;;;;;;;15.61;100.00;100989.41;5136022;27;20429;-65
2023/09/01 08:05:48;;;;;;;11.45;5.50;;;;;;;15.66;100.00;100991.25;5123358;27;20058;-65
2023/09/01 08:08:36;;;;;;;12.90;5.18;;;;;;;15.69;100.00;100996.13;5135700;27;20406;-65
2023/09/01 08:11:25;;;;;;;11.15;5.50;;;;;;;15.71;100.00;100994.75;5137782;27;20130;-64
2023/09/01 08:14:13;;;;;;;11.38;5.28;;;;;;;15.74;100.00;100999.66;5108237;27;20104;-63
2023/09/01 08:17:01;;;;;;;11.75;5.20;;;;;;;15.77;100.00;101017.47;5133222;27;20044;-65
2023/09/01 08:19:49;;;;;;;12.90;6.05;;;;;;;15.77;100.00;101015.53;5133718;27;20552;-63
2023/09/01 08:22:37;;;;;;;10.18;5.63;;;;;;;15.74;100.00;101018.06;5120644;27;20177;-64
2023/09/01 08:25:25;;;;;;;12.32;5.55;;;;;;;15.76;100.00;101013.91;5135809;27;20054;-66
2023/09/01 08:28:13;;;;;;;12.30;5.90;;;;;;;15.77;100.00;101025.69;5135082;27;20043;-65
2023/09/01 08:31:05;;;;;;;9.90;5.65;;;;;;;15.76;100.00;101027.63;5119014;27;20039;-65
2023/09/01 08:33:54;;;;;;;9.23;5.30;;;;;;;15.77;100.00;101026.50;5135417;27;20426;-65
2023/09/01 08:36:43;;;;;;;9.82;4.85;;;;;;;15.80;100.00;101024.28;5135604;27;20043;-65
2023/09/01 08:39:31;;;;;;;8.73;4.78;;;;;;;15.80;100.00;101035.28;5113973;28;20415;-65
2023/09/01 08:42:21;;;;;;;10.15;5.45;;;;;;;15.79;100.00;101025.41;5116000;27;20043;-65
2023/09/01 08:45:10;;;;;;;12.55;5.68;;;;;;;15.76;100.00;101030.38;5115728;28;20117;-64
2023/09/01 08:47:59;;;;;;;13.43;6.07;;;;;;;15.75;100.00;101028.75;5109288;27;20745;-65
2023/09/01 08:50:47;;;;;;;13.57;5.50;;;;;;;15.76;100.00;101029.56;5107424;27;20458;-64
2023/09/01 08:53:35;;;;;;;12.05;5.75;;;;;;;15.75;100.00;101042.50;5134563;27;20079;-66
2023/09/01 08:56:23;;;;;;;12.55;5.90;;;;;;;15.76;100.00;101043.31;5134863;27;20035;-63
2023/09/01 08:59:12;;;;;;;11.35;6.03;;;;;;;15.79;100.00;101039.97;5119041;27;20407;-65
2023/09/01 09:02:00;;;;;;;12.43;6.50;;;;;;;15.79;100.00;101031.72;5136502;27;20055;-64
2023/09/01 09:04:48;;;;;;;11.60;5.25;;;;;;;15.81;100.00;101039.69;5135762;27;20410;-65
2023/09/01 09:07:36;;;;;;;10.27;5.28;;;;;;;15.80;100.00;101041.59;5136427;27;20047;-64
2023/09/01 09:10:38;;;;;;;9.20;5.50;;;;;;;15.82;100.00;101050.34;5118863;27;20065;-64
2023/09/01 09:13:33;;;;;;;11.85;5.22;;;;;;;15.81;100.00;101042.44;5121557;27;20051;-64
2023/09/01 09:16:21;;;;;;;11.13;4.85;;;;;;;15.82;100.00;101038.53;5101559;28;20638;-62
2023/09/01 09:19:11;;;;;;;9.93;5.40;;;;;;;15.82;100.00;101039.34;5118194;27;20051;-64
2023/09/01 09:22:06;;;;;;;12.07;5.70;;;;;;;15.83;100.00;101051.19;5111093;27;20047;-64
2023/09/01 09:24:55;;;;;;;11.10;5.80;;;;;;;15.83;100.00;101048.44;5120560;27;20055;-64
2023/09/01 09:27:43;;;;;;;9.38;5.63;;;;;;;15.83;100.00;101046.50;5135412;27;20130;-65
2023/09/01 09:30:31;;;;;;;11.85;6.05;;;;;;;15.85;100.00;101054.44;5119144;27;20079;-64
2023/09/01 09:33:30;;;;;;;10.45;6.22;;;;;;;15.83;100.00;101063.00;5136922;27;20040;-65
2023/09/01 09:36:18;;;;;;;10.88;5.93;;;;;;;15.84;100.00;101058.31;5136641;27;20043;-65
2023/09/01 09:39:06;;;;;;;11.63;5.50;;;;;;;15.86;100.00;101059.63;5119748;27;20043;-65
2023/09/01 09:41:54;;;;;;;10.57;4.55;;;;;;;15.88;100.00;101062.09;5096286;28;20267;-65
2023/09/01 09:44:42;;;;;;;14.63;5.50;;;;;;;15.89;100.00;101061.78;5107165;27;20041;-65
2023/09/01 09:47:33;;;;;;;9.25;5.45;;;;;;;15.88;100.00;101053.84;5119540;27;20039;-65
2023/09/01 09:50:22;;;;;;;10.00;4.97;;;;;;;15.89;100.00;101063.72;5119980;27;20591;-65
2023/09/01 09:53:16;;;;;;;9.90;5.65;;;;;;;15.89;100.00;101059.03;5120475;27;20042;-64
2023/09/01 09:56:22;;;;;;;12.85;5.70;;;;;;;15.94;100.00;101058.16;5120753;27;20051;-64
2023/09/01 09:59:13;;;;;;;11.35;6.00;;;;;;;15.95;100.00;101062.53;5119477;27;20451;-64
2023/09/01 10:02:06;;;;;;;10.57;5.80;;;;;;;15.94;100.00;101069.94;5101964;27;20091;-65
2023/09/01 10:04:55;;;;;;;10.13;6.07;;;;;;;15.93;100.00;101062.81;5117515;27;20055;-64
2023/09/01 10:07:44;;;;;;;11.20;5.93;;;;;;;15.91;100.00;101064.25;5133802;27;20053;-64
2023/09/01 10:10:33;;;;;;;11.30;5.75;;;;;;;15.92;100.00;101069.44;5131332;27;20199;-63
2023/09/01 10:13:22;;;;;;;10.57;5.43;;;;;;;15.92;100.00;101066.72;5134684;27;20406;-64
2023/09/01 10:16:10;;;;;;;9.57;5.40;;;;;;;15.89;100.00;101056.28;5117096;27;20039;-65
2023/09/01 10:18:59;;;;;;;10.10;5.70;;;;;;;15.90;100.00;101057.13;5119211;27;20043;-65
2023/09/01 10:21:47;;;;;;;8.15;5.45;;;;;;;15.91;100.00;101053.25;5128059;27;20126;-64
2023/09/01 10:24:36;;;;;;;9.02;5.50;;;;;;;15.91;100.00;101047.75;5089839;27;20196;-64
2023/09/01 10:27:25;;;;;;;9.52;5.80;;;;;;;15.92;100.00;101050.22;5112099;28;20043;-64
2023/09/01 10:30:29;;;;;;;9.13;5.80;;;;;;;15.93;100.00;101048.28;5131358;27;20039;-65
2023/09/01 10:33:25;;;;;;;10.17;5.93;;;;;;;15.92;100.00;101052.97;5134903;27;20054;-64
2023/09/01 10:36:14;;;;;;;10.02;5.78;;;;;;;15.92;100.00;101052.13;5134853;27;20285;-65
2023/09/01 10:39:21;;;;;;;11.32;5.50;;;;;;;15.93;100.00;101057.34;5146323;27;20054;-61
2023/09/01 10:42:10;;;;;;;9.88;4.82;;;;;;;15.96;100.00;101047.69;5138457;27;20054;-63
2023/09/01 10:45:07;;;;;;;21.13;12.83;;;;;;;16.02;100.00;101051.16;4419648;27;10000759;-65
2023/09/01 10:47:55;;;;;;;15.80;8.13;;;;;;;16.06;100.00;101055.75;5135782;27;20039;-63
2023/09/01 10:50:43;;;;;;;10.88;5.97;;;;;;;16.08;100.00;101059.03;5145266;27;20065;-61
2023/09/01 10:53:31;;;;;;;8.48;4.60;;;;;;;16.10;100.00;101059.53;5135539;27;20541;-60
2023/09/01 10:56:20;;;;;;;8.07;4.60;;;;;;;16.09;100.00;101071.66;5142222;27;20069;-64
2023/09/01 10:59:08;;;;;;;8.77;4.95;;;;;;;16.09;100.00;101066.16;5131945;27;20500;-63
2023/09/01 11:01:56;;;;;;;8.18;4.70;;;;;;;16.10;100.00;101073.28;5129145;27;20277;-64
2023/09/01 11:04:45;;;;;;;7.15;4.10;;;;;;;16.12;100.00;101076.56;5129196;27;20055;-63
2023/09/01 11:08:17;;;;;;;6.50;4.20;;;;;;;16.16;100.00;101074.84;5114016;28;20495;-64
2023/09/01 11:11:10;;;;;;;8.05;4.78;;;;;;;16.21;100.00;101070.38;5130968;28;20049;-65
2023/09/01 11:14:01;;;;;;;6.03;4.20;;;;;;;16.26;100.00;101070.28;5113446;28;20058;-64
2023/09/01 11:16:50;;;;;;;6.90;4.38;;;;;;;16.28;100.00;101068.84;5130197;28;20039;-64
2023/09/01 11:19:48;;;;;;;6.55;4.30;;;;;;;16.32;100.00;101074.59;5129466;28;20561;-64
2023/09/01 11:22:40;;;;;;;5.63;3.90;;;;;;;16.30;100.00;101071.31;5128998;28;20108;-64
2023/09/01 11:25:29;;;;;;;6.88;4.32;;;;;;;16.28;100.00;101074.34;5104757;28;20053;-65
2023/09/01 11:28:17;;;;;;;6.55;4.30;;;;;;;16.28;100.00;101076.28;5128584;28;20047;-63
2023/09/01 11:31:05;;;;;;;5.65;4.18;;;;;;;16.27;100.00;101077.44;5102073;28;20199;-63
2023/09/01 11:33:54;;;;;;;7.95;4.30;;;;;;;16.24;100.00;101078.84;5114115;28;20192;-63
2023/09/01 11:36:49;;;;;;;8.63;4.25;;;;;;;16.24;100.00;101076.09;5128788;28;20039;-64
2023/09/01 11:39:37;;;;;;;8.70;4.38;;;;;;;16.27;100.00;101077.44;5114703;28;20043;-63
2023/09/01 11:42:26;;;;;;;7.10;4.22;;;;;;;16.28;100.00;101090.84;5114319;28;20115;-63
2023/09/01 11:45:13;;;;;;;6.55;4.43;;;;;;;16.31;100.00;101087.53;5084416;28;20047;-66
2023/09/01 11:48:04;;;;;;;5.97;4.13;;;;;;;16.35;100.00;101085.78;5112594;28;20050;-63
2023/09/01 11:50:57;;;;;;;5.40;4.00;;;;;;;16.43;100.00;101094.47;5130180;28;20043;-64
2023/09/01 11:53:53;;;;;;;8.10;4.22;;;;;;;16.49;100.00;101093.28;5114413;28;20181;-65
2023/09/01 11:56:41;;;;;;;;;;;;;;;16.56;100.00;101096.47;5128144;28;20047;-65
2023/09/01 11:59:30;;;;;;;9.20;4.90;;;;;;;16.60;100.00;101097.50;5115079;28;19923;-66
2023/09/01 12:02:19;;;;;;;8.75;4.22;;;;;;;16.63;100.00;101101.59;5114582;28;20047;-65
2023/09/01 12:05:07;;;;;;;6.30;4.15;;;;;;;16.60;100.00;101112.06;5112425;27;20520;-65
2023/09/01 12:07:55;;;;;;;7.05;4.25;;;;;;;16.58;100.00;101110.72;5105829;27;20481;-66
2023/09/01 12:10:43;;;;;;;9.35;6.05;;;;;;;16.56;100.00;101108.28;5131992;27;20101;-65
2023/09/01 12:13:32;;;;;;;6.55;3.90;;;;;;;16.54;100.00;101110.50;5104978;27;20054;-64
2023/09/01 12:16:24;;;;;;;6.25;3.90;;;;;;;16.54;100.00;101121.50;5132071;27;20043;-67
2023/09/01 12:19:12;;;;;;;5.90;4.00;;;;;;;16.55;100.00;101127.84;5132766;27;20088;-68
2023/09/01 12:22:00;;;;;;;6.15;4.22;;;;;;;16.59;100.00;101123.38;5133518;27;20078;-68
2023/09/01 12:24:52;;;;;;;7.13;4.07;;;;;;;16.66;100.00;101128.47;5091102;27;20043;-68
2023/09/01 12:27:40;;;;;;;7.07;4.47;;;;;;;16.69;100.00;101138.88;5118799;27;20043;-68
2023/09/01 12:30:28;;;;;;;6.45;4.32;;;;;;;16.72;100.00;101143.78;5134082;27;20042;-67
2023/09/01 12:33:16;;;;;;;6.05;4.47;;;;;;;16.74;100.00;101141.53;5118131;27;20055;-68
2023/09/01 12:36:06;;;;;;;5.75;4.28;;;;;;;16.75;100.00;101143.19;5130295;27;20129;-68
2023/09/01 12:38:54;;;;;;;6.50;4.85;;;;;;;16.75;100.00;101145.94;5117146;27;20047;-67
2023/09/01 12:41:42;;;;;;;4.88;3.85;;;;;;;16.76;100.00;101144.81;5131709;27;20076;-67
2023/09/01 12:44:31;;;;;;;5.60;4.07;;;;;;;16.81;100.00;101153.00;5133969;27;20436;-67
2023/09/01 12:47:19;;;;;;;5.20;4.03;;;;;;;16.86;100.00;101158.44;5132467;27;20169;-67
2023/09/01 12:50:07;;;;;;;5.68;4.30;;;;;;;16.89;100.00;101160.59;5135755;27;20495;-67
2023/09/01 12:52:55;;;;;;;6.10;4.53;;;;;;;16.92;100.00;101164.66;5119829;27;20043;-68